sensor_id;sensor_type;location;lat;lon;timestamp;temperature;humidity
54518;DHT22;40423;53.176;6.002;2023-08-30T00:01:08;14.60;99.90
54518;DHT22;40423;53.176;6.002;2023-08-30T00:03:34;14.60;99.90
54518;DHT22;40423;53.176;6.002;2023-08-30T00:06:06;14.60;99.90
54518;DHT22;40423;53.176;6.002;2023-08-30T00:08:33;14.60;99.90
54518;DHT22;40423;53.176;6.002;2023-08-30T00:10:59;14.60;99.90
54518;DHT22;40423;53.176;6.002;2023-08-30T00:13:25;14.60;99.90
54518;DHT22;40423;53.176;6.002;2023-08-30T00:15:51;14.60;99.90
54518;DHT22;40423;53.176;6.002;2023-08-30T00:18:17;14.70;99.90
54518;DHT22;40423;53.176;6.002;2023-08-30T00:20:45;14.60;99.90
54518;DHT22;40423;53.176;6.002;2023-08-30T00:23:11;14.60;99.90
54518;DHT22;40423;53.176;6.002;2023-08-30T00:25:37;14.60;99.90
54518;DHT22;40423;53.176;6.002;2023-08-30T00:28:03;14.60;99.90
54518;DHT22;40423;53.176;6.002;2023-08-30T00:30:28;14.60;99.90
54518;DHT22;40423;53.176;6.002;2023-08-30T00:32:54;14.60;99.90
54518;DHT22;40423;53.176;6.002;2023-08-30T00:35:20;14.50;99.90
54518;DHT22;40423;53.176;6.002;2023-08-30T00:37:45;14.60;99.90
54518;DHT22;40423;53.176;6.002;2023-08-30T00:40:11;14.50;99.90
54518;DHT22;40423;53.176;6.002;2023-08-30T00:42:37;14.50;99.90
54518;DHT22;40423;53.176;6.002;2023-08-30T00:45:03;14.50;99.90
54518;DHT22;40423;53.176;6.002;2023-08-30T00:47:29;14.50;99.90
54518;DHT22;40423;53.176;6.002;2023-08-30T00:49:55;14.40;99.90
54518;DHT22;40423;53.176;6.002;2023-08-30T00:52:21;14.40;99.90
54518;DHT22;40423;53.176;6.002;2023-08-30T00:54:47;14.40;99.90
54518;DHT22;40423;53.176;6.002;2023-08-30T00:57:12;14.30;99.90
54518;DHT22;40423;53.176;6.002;2023-08-30T00:59:39;14.30;99.90
54518;DHT22;40423;53.176;6.002;2023-08-30T01:02:05;14.20;99.90
54518;DHT22;40423;53.176;6.002;2023-08-30T01:04:30;14.20;99.90
54518;DHT22;40423;53.176;6.002;2023-08-30T01:06:56;14.20;99.90
54518;DHT22;40423;53.176;6.002;2023-08-30T01:09:24;14.10;99.90
54518;DHT22;40423;53.176;6.002;2023-08-30T01:11:54;14.10;99.90
54518;DHT22;40423;53.176;6.002;2023-08-30T01:17:14;14.10;99.90
54518;DHT22;40423;53.176;6.002;2023-08-30T01:20:01;14.00;99.90
54518;DHT22;40423;53.176;6.002;2023-08-30T01:22:55;14.00;99.90
54518;DHT22;40423;53.176;6.002;2023-08-30T01:26:02;14.00;99.90
54518;DHT22;40423;53.176;6.002;2023-08-30T01:28:30;14.00;99.90
54518;DHT22;40423;53.176;6.002;2023-08-30T01:30:58;13.90;99.90
54518;DHT22;40423;53.176;6.002;2023-08-30T01:33:25;13.90;99.90
54518;DHT22;40423;53.176;6.002;2023-08-30T01:35:54;13.90;99.90
54518;DHT22;40423;53.176;6.002;2023-08-30T01:38:21;13.80;99.90
54518;DHT22;40423;53.176;6.002;2023-08-30T01:40:48;13.80;99.90
54518;DHT22;40423;53.176;6.002;2023-08-30T01:43:16;13.80;99.90
54518;DHT22;40423;53.176;6.002;2023-08-30T01:45:43;13.80;99.90
54518;DHT22;40423;53.176;6.002;2023-08-30T01:48:12;13.80;99.90
54518;DHT22;40423;53.176;6.002;2023-08-30T01:50:39;13.80;99.90
54518;DHT22;40423;53.176;6.002;2023-08-30T01:53:06;13.70;99.90
54518;DHT22;40423;53.176;6.002;2023-08-30T01:55:34;13.70;99.90
54518;DHT22;40423;53.176;6.002;2023-08-30T01:58:01;13.70;99.90
54518;DHT22;40423;53.176;6.002;2023-08-30T02:00:27;13.70;99.90
54518;DHT22;40423;53.176;6.002;2023-08-30T02:02:53;13.60;99.90
54518;DHT22;40423;53.176;6.002;2023-08-30T02:05:19;13.60;99.90
54518;DHT22;40423;53.176;6.002;2023-08-30T02:07:53;13.50;99.90
54518;DHT22;40423;53.176;6.002;2023-08-30T02:10:26;13.50;99.90
54518;DHT22;40423;53.176;6.002;2023-08-30T02:12:54;13.50;99.90
54518;DHT22;40423;53.176;6.002;2023-08-30T02:15:21;13.50;99.90
54518;DHT22;40423;53.176;6.002;2023-08-30T02:17:48;13.40;99.90
54518;DHT22;40423;53.176;6.002;2023-08-30T02:20:15;13.40;99.90
54518;DHT22;40423;53.176;6.002;2023-08-30T02:22:41;13.40;99.90
54518;DHT22;40423;53.176;6.002;2023-08-30T02:25:07;13.40;99.90
54518;DHT22;40423;53.176;6.002;2023-08-30T02:27:34;13.40;99.90
54518;DHT22;40423;53.176;6.002;2023-08-30T02:30:03;13.40;99.90
54518;DHT22;40423;53.176;6.002;2023-08-30T02:32:29;13.40;99.90
54518;DHT22;40423;53.176;6.002;2023-08-30T02:34:56;13.30;99.90
54518;DHT22;40423;53.176;6.002;2023-08-30T02:37:22;13.30;99.90
54518;DHT22;40423;53.176;6.002;2023-08-30T02:39:48;13.30;99.90
54518;DHT22;40423;53.176;6.002;2023-08-30T02:42:14;13.30;99.90
54518;DHT22;40423;53.176;6.002;2023-08-30T02:44:39;13.30;99.90
54518;DHT22;40423;53.176;6.002;2023-08-30T02:47:05;13.30;99.90
54518;DHT22;40423;53.176;6.002;2023-08-30T02:49:31;13.20;99.90
54518;DHT22;40423;53.176;6.002;2023-08-30T02:51:57;13.20;99.90
54518;DHT22;40423;53.176;6.002;2023-08-30T02:54:22;13.20;99.90
54518;DHT22;40423;53.176;6.002;2023-08-30T02:56:48;13.20;99.90
54518;DHT22;40423;53.176;6.002;2023-08-30T02:59:14;13.20;99.90
54518;DHT22;40423;53.176;6.002;2023-08-30T03:01:40;13.20;99.90
54518;DHT22;40423;53.176;6.002;2023-08-30T03:04:06;13.20;99.90
54518;DHT22;40423;53.176;6.002;2023-08-30T03:06:33;13.30;99.90
54518;DHT22;40423;53.176;6.002;2023-08-30T03:08:59;13.30;99.90
54518;DHT22;40423;53.176;6.002;2023-08-30T03:11:24;13.30;99.90
54518;DHT22;40423;53.176;6.002;2023-08-30T03:13:50;13.30;99.90
54518;DHT22;40423;53.176;6.002;2023-08-30T03:16:17;13.30;99.90
54518;DHT22;40423;53.176;6.002;2023-08-30T03:18:43;13.30;99.90
54518;DHT22;40423;53.176;6.002;2023-08-30T03:21:09;13.40;99.90
54518;DHT22;40423;53.176;6.002;2023-08-30T03:23:35;13.40;99.90
54518;DHT22;40423;53.176;6.002;2023-08-30T03:26:16;13.40;99.90
54518;DHT22;40423;53.176;6.002;2023-08-30T03:28:43;13.40;99.90
54518;DHT22;40423;53.176;6.002;2023-08-30T03:31:17;13.40;99.90
54518;DHT22;40423;53.176;6.002;2023-08-30T03:33:43;13.50;99.90
54518;DHT22;40423;53.176;6.002;2023-08-30T03:36:14;13.50;99.90
54518;DHT22;40423;53.176;6.002;2023-08-30T03:38:40;13.50;99.90
54518;DHT22;40423;53.176;6.002;2023-08-30T03:41:06;13.50;99.90
54518;DHT22;40423;53.176;6.002;2023-08-30T03:43:33;13.50;99.90
54518;DHT22;40423;53.176;6.002;2023-08-30T03:46:00;13.60;99.90
54518;DHT22;40423;53.176;6.002;2023-08-30T03:48:27;13.60;99.90
54518;DHT22;40423;53.176;6.002;2023-08-30T03:50:53;13.60;99.90
54518;DHT22;40423;53.176;6.002;2023-08-30T03:53:19;13.60;99.90
54518;DHT22;40423;53.176;6.002;2023-08-30T03:55:45;13.60;99.90
54518;DHT22;40423;53.176;6.002;2023-08-30T03:58:10;13.60;99.90
54518;DHT22;40423;53.176;6.002;2023-08-30T04:00:37;13.60;99.90
54518;DHT22;40423;53.176;6.002;2023-08-30T04:03:04;13.70;99.90
54518;DHT22;40423;53.176;6.002;2023-08-30T04:05:33;13.70;99.90
54518;DHT22;40423;53.176;6.002;2023-08-30T04:08:00;13.70;99.90
54518;DHT22;40423;53.176;6.002;2023-08-30T04:10:26;13.70;99.90
54518;DHT22;40423;53.176;6.002;2023-08-30T04:12:52;13.70;99.90
54518;DHT22;40423;53.176;6.002;2023-08-30T04:15:18;13.70;99.90
54518;DHT22;40423;53.176;6.002;2023-08-30T04:17:43;13.70;99.90
54518;DHT22;40423;53.176;6.002;2023-08-30T04:20:09;13.70;99.90
54518;DHT22;40423;53.176;6.002;2023-08-30T04:22:38;13.80;99.90
54518;DHT22;40423;53.176;6.002;2023-08-30T04:25:04;13.80;99.90
54518;DHT22;40423;53.176;6.002;2023-08-30T04:27:30;13.80;99.90
54518;DHT22;40423;53.176;6.002;2023-08-30T04:29:56;13.70;99.90
54518;DHT22;40423;53.176;6.002;2023-08-30T04:32:22;13.80;99.90
54518;DHT22;40423;53.176;6.002;2023-08-30T04:34:47;13.80;99.90
54518;DHT22;40423;53.176;6.002;2023-08-30T04:37:13;13.80;99.90
54518;DHT22;40423;53.176;6.002;2023-08-30T04:39:40;13.80;99.90
54518;DHT22;40423;53.176;6.002;2023-08-30T04:42:06;13.80;99.90
54518;DHT22;40423;53.176;6.002;2023-08-30T04:44:31;13.80;99.90
54518;DHT22;40423;53.176;6.002;2023-08-30T04:46:58;13.80;99.90
54518;DHT22;40423;53.176;6.002;2023-08-30T04:49:23;13.80;99.90
54518;DHT22;40423;53.176;6.002;2023-08-30T04:51:51;13.80;99.90
54518;DHT22;40423;53.176;6.002;2023-08-30T04:54:16;13.80;99.90
54518;DHT22;40423;53.176;6.002;2023-08-30T04:56:42;13.80;99.90
54518;DHT22;40423;53.176;6.002;2023-08-30T04:59:08;13.90;99.90
54518;DHT22;40423;53.176;6.002;2023-08-30T05:01:34;13.90;99.90
54518;DHT22;40423;53.176;6.002;2023-08-30T05:04:00;13.90;99.90
54518;DHT22;40423;53.176;6.002;2023-08-30T05:06:26;13.90;99.90
54518;DHT22;40423;53.176;6.002;2023-08-30T05:08:52;13.90;99.90
54518;DHT22;40423;53.176;6.002;2023-08-30T05:11:18;13.90;99.90
54518;DHT22;40423;53.176;6.002;2023-08-30T05:13:46;13.90;99.90
54518;DHT22;40423;53.176;6.002;2023-08-30T05:16:11;13.90;99.90
54518;DHT22;40423;53.176;6.002;2023-08-30T05:18:37;13.90;99.90
54518;DHT22;40423;53.176;6.002;2023-08-30T05:21:04;13.90;99.90
54518;DHT22;40423;53.176;6.002;2023-08-30T05:23:29;13.90;99.90
54518;DHT22;40423;53.176;6.002;2023-08-30T05:25:55;13.90;99.90
54518;DHT22;40423;53.176;6.002;2023-08-30T05:28:21;14.00;99.90
54518;DHT22;40423;53.176;6.002;2023-08-30T05:30:46;14.00;99.90
54518;DHT22;40423;53.176;6.002;2023-08-30T05:33:12;14.00;99.90
54518;DHT22;40423;53.176;6.002;2023-08-30T05:35:38;14.00;99.90
54518;DHT22;40423;53.176;6.002;2023-08-30T05:38:03;14.00;99.90
54518;DHT22;40423;53.176;6.002;2023-08-30T05:40:29;14.00;99.90
54518;DHT22;40423;53.176;6.002;2023-08-30T05:42:55;14.00;99.90
54518;DHT22;40423;53.176;6.002;2023-08-30T05:45:21;14.10;99.90
54518;DHT22;40423;53.176;6.002;2023-08-30T05:47:47;14.10;99.90
54518;DHT22;40423;53.176;6.002;2023-08-30T05:50:13;14.10;99.90
54518;DHT22;40423;53.176;6.002;2023-08-30T05:52:39;14.10;99.90
54518;DHT22;40423;53.176;6.002;2023-08-30T05:55:08;14.10;99.90
54518;DHT22;40423;53.176;6.002;2023-08-30T05:57:34;14.10;99.90
54518;DHT22;40423;53.176;6.002;2023-08-30T06:00:01;14.20;99.90
54518;DHT22;40423;53.176;6.002;2023-08-30T06:02:27;14.20;99.90
54518;DHT22;40423;53.176;6.002;2023-08-30T06:04:52;14.20;99.90
54518;DHT22;40423;53.176;6.002;2023-08-30T06:07:18;14.20;99.90
54518;DHT22;40423;53.176;6.002;2023-08-30T06:09:44;14.20;99.90
54518;DHT22;40423;53.176;6.002;2023-08-30T06:12:10;14.20;99.90
54518;DHT22;40423;53.176;6.002;2023-08-30T06:14:35;14.30;99.90
54518;DHT22;40423;53.176;6.002;2023-08-30T06:17:01;14.30;99.90
54518;DHT22;40423;53.176;6.002;2023-08-30T06:19:27;14.30;99.90
54518;DHT22;40423;53.176;6.002;2023-08-30T06:21:53;14.30;99.90
54518;DHT22;40423;53.176;6.002;2023-08-30T06:24:19;14.30;99.90
54518;DHT22;40423;53.176;6.002;2023-08-30T06:26:45;14.30;99.90
54518;DHT22;40423;53.176;6.002;2023-08-30T06:29:10;14.30;99.90
54518;DHT22;40423;53.176;6.002;2023-08-30T06:31:36;14.40;99.90
54518;DHT22;40423;53.176;6.002;2023-08-30T06:34:02;14.40;99.90
54518;DHT22;40423;53.176;6.002;2023-08-30T06:36:28;14.40;99.90
54518;DHT22;40423;53.176;6.002;2023-08-30T06:38:53;14.50;99.90
54518;DHT22;40423;53.176;6.002;2023-08-30T06:41:19;14.50;99.90
54518;DHT22;40423;53.176;6.002;2023-08-30T06:43:45;14.50;99.90
54518;DHT22;40423;53.176;6.002;2023-08-30T06:46:10;14.50;99.90
54518;DHT22;40423;53.176;6.002;2023-08-30T06:48:36;14.60;99.90
54518;DHT22;40423;53.176;6.002;2023-08-30T06:51:02;14.60;99.90
54518;DHT22;40423;53.176;6.002;2023-08-30T06:53:28;14.70;99.90
54518;DHT22;40423;53.176;6.002;2023-08-30T06:55:57;14.70;99.90
54518;DHT22;40423;53.176;6.002;2023-08-30T06:58:23;14.90;99.90
54518;DHT22;40423;53.176;6.002;2023-08-30T07:00:49;15.00;99.90
54518;DHT22;40423;53.176;6.002;2023-08-30T07:03:15;15.20;99.90
54518;DHT22;40423;53.176;6.002;2023-08-30T07:05:41;15.40;99.90
54518;DHT22;40423;53.176;6.002;2023-08-30T07:08:09;15.40;99.90
54518;DHT22;40423;53.176;6.002;2023-08-30T07:10:35;15.50;99.90
54518;DHT22;40423;53.176;6.002;2023-08-30T07:13:00;15.60;99.90
54518;DHT22;40423;53.176;6.002;2023-08-30T07:15:26;15.70;99.90
54518;DHT22;40423;53.176;6.002;2023-08-30T07:17:52;15.80;99.90
54518;DHT22;40423;53.176;6.002;2023-08-30T07:20:18;15.90;99.90
54518;DHT22;40423;53.176;6.002;2023-08-30T07:22:43;15.80;99.90
54518;DHT22;40423;53.176;6.002;2023-08-30T07:25:09;15.90;99.90
54518;DHT22;40423;53.176;6.002;2023-08-30T07:27:39;15.90;99.90
54518;DHT22;40423;53.176;6.002;2023-08-30T07:30:05;15.90;99.90
54518;DHT22;40423;53.176;6.002;2023-08-30T07:32:31;15.90;99.90
54518;DHT22;40423;53.176;6.002;2023-08-30T07:34:56;15.90;99.90
54518;DHT22;40423;53.176;6.002;2023-08-30T07:37:22;15.90;99.90
54518;DHT22;40423;53.176;6.002;2023-08-30T07:39:48;15.90;99.90
54518;DHT22;40423;53.176;6.002;2023-08-30T07:42:14;16.00;99.90
54518;DHT22;40423;53.176;6.002;2023-08-30T07:44:40;16.00;99.90
54518;DHT22;40423;53.176;6.002;2023-08-30T07:47:06;16.00;99.90
54518;DHT22;40423;53.176;6.002;2023-08-30T07:49:32;16.00;99.90
54518;DHT22;40423;53.176;6.002;2023-08-30T07:51:58;16.10;99.90
54518;DHT22;40423;53.176;6.002;2023-08-30T07:54:23;16.20;99.90
54518;DHT22;40423;53.176;6.002;2023-08-30T07:56:49;16.20;99.90
54518;DHT22;40423;53.176;6.002;2023-08-30T07:59:15;16.30;99.90
54518;DHT22;40423;53.176;6.002;2023-08-30T08:01:41;16.30;99.90
54518;DHT22;40423;53.176;6.002;2023-08-30T08:04:07;16.30;99.90
54518;DHT22;40423;53.176;6.002;2023-08-30T08:06:33;16.30;99.90
54518;DHT22;40423;53.176;6.002;2023-08-30T08:08:59;16.30;99.90
54518;DHT22;40423;53.176;6.002;2023-08-30T08:11:25;16.30;99.90
54518;DHT22;40423;53.176;6.002;2023-08-30T08:13:51;16.50;99.90
54518;DHT22;40423;53.176;6.002;2023-08-30T08:16:17;16.70;99.90
54518;DHT22;40423;53.176;6.002;2023-08-30T08:18:42;16.90;99.90
54518;DHT22;40423;53.176;6.002;2023-08-30T08:21:08;17.10;99.90
54518;DHT22;40423;53.176;6.002;2023-08-30T08:23:34;17.20;99.90
54518;DHT22;40423;53.176;6.002;2023-08-30T08:26:00;17.20;99.90
54518;DHT22;40423;53.176;6.002;2023-08-30T08:28:27;17.20;99.90
54518;DHT22;40423;53.176;6.002;2023-08-30T08:30:53;17.10;99.90
54518;DHT22;40423;53.176;6.002;2023-08-30T08:33:18;17.10;99.90
54518;DHT22;40423;53.176;6.002;2023-08-30T08:35:45;17.00;99.90
54518;DHT22;40423;53.176;6.002;2023-08-30T08:38:11;17.00;99.90
54518;DHT22;40423;53.176;6.002;2023-08-30T08:40:37;16.90;99.90
54518;DHT22;40423;53.176;6.002;2023-08-30T08:43:06;16.90;99.90
54518;DHT22;40423;53.176;6.002;2023-08-30T08:45:36;16.80;99.90
54518;DHT22;40423;53.176;6.002;2023-08-30T08:48:05;16.90;99.90
54518;DHT22;40423;53.176;6.002;2023-08-30T08:50:34;16.80;99.90
54518;DHT22;40423;53.176;6.002;2023-08-30T08:53:02;16.80;99.90
54518;DHT22;40423;53.176;6.002;2023-08-30T08:55:29;16.80;99.90
54518;DHT22;40423;53.176;6.002;2023-08-30T08:57:57;16.80;99.90
54518;DHT22;40423;53.176;6.002;2023-08-30T09:00:24;16.80;99.90
54518;DHT22;40423;53.176;6.002;2023-08-30T09:02:51;16.80;99.90
54518;DHT22;40423;53.176;6.002;2023-08-30T09:05:19;16.80;99.90
54518;DHT22;40423;53.176;6.002;2023-08-30T09:07:45;16.90;99.90
54518;DHT22;40423;53.176;6.002;2023-08-30T09:10:11;16.90;99.90
54518;DHT22;40423;53.176;6.002;2023-08-30T09:12:36;16.90;99.90
54518;DHT22;40423;53.176;6.002;2023-08-30T09:15:02;16.80;99.90
54518;DHT22;40423;53.176;6.002;2023-08-30T09:17:39;16.60;99.90
54518;DHT22;40423;53.176;6.002;2023-08-30T09:20:09;16.50;99.90
54518;DHT22;40423;53.176;6.002;2023-08-30T09:22:40;16.50;99.90
54518;DHT22;40423;53.176;6.002;2023-08-30T09:25:10;16.30;99.90
54518;DHT22;40423;53.176;6.002;2023-08-30T09:27:37;16.40;99.90
54518;DHT22;40423;53.176;6.002;2023-08-30T09:30:06;16.20;99.90
54518;DHT22;40423;53.176;6.002;2023-08-30T09:32:39;16.20;99.90
54518;DHT22;40423;53.176;6.002;2023-08-30T09:35:05;16.30;99.90
54518;DHT22;40423;53.176;6.002;2023-08-30T09:37:31;16.30;99.90
54518;DHT22;40423;53.176;6.002;2023-08-30T09:39:57;16.30;99.90
54518;DHT22;40423;53.176;6.002;2023-08-30T09:42:23;16.30;99.90
54518;DHT22;40423;53.176;6.002;2023-08-30T09:44:49;16.40;99.90
54518;DHT22;40423;53.176;6.002;2023-08-30T09:47:14;16.40;99.90
54518;DHT22;40423;53.176;6.002;2023-08-30T09:49:44;16.40;99.90
54518;DHT22;40423;53.176;6.002;2023-08-30T09:52:14;16.40;99.90
54518;DHT22;40423;53.176;6.002;2023-08-30T09:54:41;16.40;99.90
54518;DHT22;40423;53.176;6.002;2023-08-30T09:57:10;16.50;99.90
54518;DHT22;40423;53.176;6.002;2023-08-30T09:59:36;16.50;99.90
54518;DHT22;40423;53.176;6.002;2023-08-30T10:02:03;16.40;99.90
54518;DHT22;40423;53.176;6.002;2023-08-30T10:04:33;16.50;99.90
54518;DHT22;40423;53.176;6.002;2023-08-30T10:07:02;16.40;99.90
54518;DHT22;40423;53.176;6.002;2023-08-30T10:09:30;16.40;99.90
54518;DHT22;40423;53.176;6.002;2023-08-30T10:11:58;16.40;99.90
54518;DHT22;40423;53.176;6.002;2023-08-30T10:14:23;16.50;99.90
54518;DHT22;40423;53.176;6.002;2023-08-30T10:16:51;16.50;99.90
54518;DHT22;40423;53.176;6.002;2023-08-30T10:19:26;16.60;99.90
54518;DHT22;40423;53.176;6.002;2023-08-30T10:22:02;16.60;99.90
54518;DHT22;40423;53.176;6.002;2023-08-30T10:24:39;16.60;99.90
54518;DHT22;40423;53.176;6.002;2023-08-30T10:27:08;16.70;99.90
54518;DHT22;40423;53.176;6.002;2023-08-30T10:29:36;16.70;99.90
54518;DHT22;40423;53.176;6.002;2023-08-30T10:32:04;16.70;99.90
54518;DHT22;40423;53.176;6.002;2023-08-30T10:34:34;16.70;99.90
54518;DHT22;40423;53.176;6.002;2023-08-30T10:37:01;16.60;99.90
54518;DHT22;40423;53.176;6.002;2023-08-30T10:39:36;16.60;99.90
54518;DHT22;40423;53.176;6.002;2023-08-30T10:42:12;16.60;99.90
54518;DHT22;40423;53.176;6.002;2023-08-30T10:45:13;16.50;99.90
54518;DHT22;40423;53.176;6.002;2023-08-30T10:47:38;16.50;99.90
54518;DHT22;40423;53.176;6.002;2023-08-30T10:50:08;16.50;99.90
54518;DHT22;40423;53.176;6.002;2023-08-30T10:52:35;16.50;99.90
54518;DHT22;40423;53.176;6.002;2023-08-30T10:55:08;16.60;99.90
54518;DHT22;40423;53.176;6.002;2023-08-30T10:57:35;16.60;99.90
54518;DHT22;40423;53.176;6.002;2023-08-30T11:02:34;16.60;99.90
54518;DHT22;40423;53.176;6.002;2023-08-30T11:05:00;16.60;99.90
54518;DHT22;40423;53.176;6.002;2023-08-30T11:07:26;16.60;99.90
54518;DHT22;40423;53.176;6.002;2023-08-30T11:09:52;16.60;99.90
54518;DHT22;40423;53.176;6.002;2023-08-30T11:12:18;16.60;99.90
54518;DHT22;40423;53.176;6.002;2023-08-30T11:14:45;16.60;99.90
54518;DHT22;40423;53.176;6.002;2023-08-30T11:17:10;16.60;99.90
54518;DHT22;40423;53.176;6.002;2023-08-30T11:19:36;16.50;99.90
54518;DHT22;40423;53.176;6.002;2023-08-30T11:22:02;16.50;99.90
54518;DHT22;40423;53.176;6.002;2023-08-30T11:24:28;16.50;99.90
54518;DHT22;40423;53.176;6.002;2023-08-30T11:26:55;16.50;99.90
54518;DHT22;40423;53.176;6.002;2023-08-30T11:29:20;16.40;99.90
54518;DHT22;40423;53.176;6.002;2023-08-30T11:31:46;16.40;99.90
54518;DHT22;40423;53.176;6.002;2023-08-30T11:34:12;16.40;99.90
54518;DHT22;40423;53.176;6.002;2023-08-30T11:36:38;16.40;99.90
54518;DHT22;40423;53.176;6.002;2023-08-30T11:39:04;16.40;99.90
54518;DHT22;40423;53.176;6.002;2023-08-30T11:41:32;16.50;99.90
54518;DHT22;40423;53.176;6.002;2023-08-30T11:43:58;16.50;99.90
54518;DHT22;40423;53.176;6.002;2023-08-30T11:46:24;16.50;99.90
54518;DHT22;40423;53.176;6.002;2023-08-30T11:48:51;16.30;99.90
54518;DHT22;40423;53.176;6.002;2023-08-30T11:51:18;16.30;99.90
54518;DHT22;40423;53.176;6.002;2023-08-30T11:53:45;16.20;99.90
54518;DHT22;40423;53.176;6.002;2023-08-30T11:56:11;16.10;99.90
54518;DHT22;40423;53.176;6.002;2023-08-30T11:58:38;16.00;99.90
54518;DHT22;40423;53.176;6.002;2023-08-30T12:01:04;16.00;99.90
54518;DHT22;40423;53.176;6.002;2023-08-30T12:03:31;16.00;99.90
54518;DHT22;40423;53.176;6.002;2023-08-30T12:05:57;15.90;99.90
54518;DHT22;40423;53.176;6.002;2023-08-30T12:08:25;15.90;99.90
54518;DHT22;40423;53.176;6.002;2023-08-30T12:10:52;16.00;99.90
54518;DHT22;40423;53.176;6.002;2023-08-30T12:15:57;16.20;99.90
54518;DHT22;40423;53.176;6.002;2023-08-30T12:18:24;16.10;99.90
54518;DHT22;40423;53.176;6.002;2023-08-30T12:21:03;16.00;99.90
54518;DHT22;40423;53.176;6.002;2023-08-30T12:23:30;15.80;99.90
54518;DHT22;40423;53.176;6.002;2023-08-30T12:26:04;15.90;99.90
54518;DHT22;40423;53.176;6.002;2023-08-30T12:28:32;15.80;99.90
54518;DHT22;40423;53.176;6.002;2023-08-30T12:30:58;15.90;99.90
54518;DHT22;40423;53.176;6.002;2023-08-30T12:33:24;15.90;99.90
54518;DHT22;40423;53.176;6.002;2023-08-30T12:35:56;16.00;99.90
54518;DHT22;40423;53.176;6.002;2023-08-30T12:38:23;16.00;99.90
54518;DHT22;40423;53.176;6.002;2023-08-30T12:40:51;16.00;99.90
54518;DHT22;40423;53.176;6.002;2023-08-30T12:43:18;16.20;99.90
54518;DHT22;40423;53.176;6.002;2023-08-30T12:45:44;16.20;99.90
54518;DHT22;40423;53.176;6.002;2023-08-30T12:48:11;16.00;99.90
54518;DHT22;40423;53.176;6.002;2023-08-30T12:50:38;16.00;99.90
54518;DHT22;40423;53.176;6.002;2023-08-30T12:53:07;16.10;99.90
54518;DHT22;40423;53.176;6.002;2023-08-30T12:55:33;16.10;99.90
54518;DHT22;40423;53.176;6.002;2023-08-30T12:58:00;16.30;99.90
54518;DHT22;40423;53.176;6.002;2023-08-30T13:00:26;16.50;99.90
54518;DHT22;40423;53.176;6.002;2023-08-30T13:02:52;16.50;99.90
54518;DHT22;40423;53.176;6.002;2023-08-30T13:05:18;16.60;99.90
54518;DHT22;40423;53.176;6.002;2023-08-30T13:07:44;16.60;99.90
54518;DHT22;40423;53.176;6.002;2023-08-30T13:10:10;16.70;99.90
54518;DHT22;40423;53.176;6.002;2023-08-30T13:12:37;16.70;99.90
54518;DHT22;40423;53.176;6.002;2023-08-30T13:15:04;16.60;99.90
54518;DHT22;40423;53.176;6.002;2023-08-30T13:17:30;16.40;99.90
54518;DHT22;40423;53.176;6.002;2023-08-30T13:19:55;16.40;99.90
54518;DHT22;40423;53.176;6.002;2023-08-30T13:22:26;16.40;99.90
54518;DHT22;40423;53.176;6.002;2023-08-30T13:24:52;16.30;99.90
54518;DHT22;40423;53.176;6.002;2023-08-30T13:27:18;16.10;99.90
54518;DHT22;40423;53.176;6.002;2023-08-30T13:29:44;16.00;99.90
54518;DHT22;40423;53.176;6.002;2023-08-30T13:32:10;15.90;99.90
54518;DHT22;40423;53.176;6.002;2023-08-30T13:34:35;15.90;99.90
54518;DHT22;40423;53.176;6.002;2023-08-30T13:37:01;16.00;99.90
54518;DHT22;40423;53.176;6.002;2023-08-30T13:39:27;16.10;99.90
54518;DHT22;40423;53.176;6.002;2023-08-30T13:41:52;16.10;99.90
54518;DHT22;40423;53.176;6.002;2023-08-30T13:44:18;16.30;99.90
54518;DHT22;40423;53.176;6.002;2023-08-30T13:46:44;16.20;99.90
54518;DHT22;40423;53.176;6.002;2023-08-30T13:49:12;16.20;99.90
54518;DHT22;40423;53.176;6.002;2023-08-30T13:51:37;16.30;99.90
54518;DHT22;40423;53.176;6.002;2023-08-30T13:54:03;16.40;99.90
54518;DHT22;40423;53.176;6.002;2023-08-30T13:56:29;16.40;99.90
54518;DHT22;40423;53.176;6.002;2023-08-30T13:58:56;16.50;99.90
54518;DHT22;40423;53.176;6.002;2023-08-30T14:01:22;16.60;99.90
54518;DHT22;40423;53.176;6.002;2023-08-30T14:03:48;16.80;99.90
54518;DHT22;40423;53.176;6.002;2023-08-30T14:06:14;16.90;99.90
54518;DHT22;40423;53.176;6.002;2023-08-30T14:08:39;17.00;99.90
54518;DHT22;40423;53.176;6.002;2023-08-30T14:11:05;17.10;99.90
54518;DHT22;40423;53.176;6.002;2023-08-30T14:13:31;17.10;99.90
54518;DHT22;40423;53.176;6.002;2023-08-30T14:16:07;17.30;99.90
54518;DHT22;40423;53.176;6.002;2023-08-30T14:18:35;17.50;99.90
54518;DHT22;40423;53.176;6.002;2023-08-30T14:21:01;17.80;99.90
54518;DHT22;40423;53.176;6.002;2023-08-30T14:23:29;18.00;99.90
54518;DHT22;40423;53.176;6.002;2023-08-30T14:25:57;18.20;99.90
54518;DHT22;40423;53.176;6.002;2023-08-30T14:28:23;18.20;99.90
54518;DHT22;40423;53.176;6.002;2023-08-30T14:30:49;18.20;99.90
54518;DHT22;40423;53.176;6.002;2023-08-30T14:33:15;18.00;99.90
54518;DHT22;40423;53.176;6.002;2023-08-30T14:35:41;17.90;99.90
54518;DHT22;40423;53.176;6.002;2023-08-30T14:38:07;17.90;99.90
54518;DHT22;40423;53.176;6.002;2023-08-30T14:40:33;17.90;99.90
54518;DHT22;40423;53.176;6.002;2023-08-30T14:42:59;17.90;99.90
54518;DHT22;40423;53.176;6.002;2023-08-30T14:45:24;17.80;99.90
54518;DHT22;40423;53.176;6.002;2023-08-30T14:47:50;17.70;99.90
54518;DHT22;40423;53.176;6.002;2023-08-30T14:50:16;17.60;99.90
54518;DHT22;40423;53.176;6.002;2023-08-30T14:52:41;17.50;99.90
54518;DHT22;40423;53.176;6.002;2023-08-30T14:55:07;17.50;99.90
54518;DHT22;40423;53.176;6.002;2023-08-30T14:57:33;17.40;99.90
54518;DHT22;40423;53.176;6.002;2023-08-30T14:59:59;17.30;99.90
54518;DHT22;40423;53.176;6.002;2023-08-30T15:02:24;17.30;99.90
54518;DHT22;40423;53.176;6.002;2023-08-30T15:04:50;17.40;99.90
54518;DHT22;40423;53.176;6.002;2023-08-30T15:07:16;17.40;99.90
54518;DHT22;40423;53.176;6.002;2023-08-30T15:09:42;17.40;99.90
54518;DHT22;40423;53.176;6.002;2023-08-30T15:12:07;17.40;99.90
54518;DHT22;40423;53.176;6.002;2023-08-30T15:14:34;17.40;99.90
54518;DHT22;40423;53.176;6.002;2023-08-30T15:17:00;17.30;99.90
54518;DHT22;40423;53.176;6.002;2023-08-30T15:19:26;17.20;99.90
54518;DHT22;40423;53.176;6.002;2023-08-30T15:21:51;17.20;99.90
54518;DHT22;40423;53.176;6.002;2023-08-30T15:24:17;17.20;99.90
54518;DHT22;40423;53.176;6.002;2023-08-30T15:26:43;17.10;99.90
54518;DHT22;40423;53.176;6.002;2023-08-30T15:29:09;17.20;99.90
54518;DHT22;40423;53.176;6.002;2023-08-30T15:31:35;17.20;99.90
54518;DHT22;40423;53.176;6.002;2023-08-30T15:34:01;17.30;99.90
54518;DHT22;40423;53.176;6.002;2023-08-30T15:36:26;17.40;99.90